createdAt,value
2019-03-13T00:00:45.686Z,81.80
2019-03-13T00:02:41.803Z,83.30
2019-03-13T00:04:38.171Z,82.10
2019-03-13T00:06:32.376Z,81.50
2019-03-13T00:08:27.042Z,81.60
2019-03-13T00:10:22.358Z,81.50
2019-03-13T00:12:17.411Z,85.50
2019-03-13T00:14:12.562Z,87.60
2019-03-13T00:16:07.398Z,88.00
2019-03-13T00:18:02.137Z,87.70
2019-03-13T00:19:56.888Z,87.20
2019-03-13T00:21:51.467Z,85.00
2019-03-13T00:23:45.746Z,83.80
2019-03-13T00:25:40.566Z,82.60
2019-03-13T00:27:35.330Z,81.80
2019-03-13T00:29:30.250Z,81.50
2019-03-13T00:31:25.681Z,79.90
2019-03-13T00:33:20.139Z,79.40
2019-03-13T00:35:14.502Z,79.30
2019-03-13T00:37:09.523Z,79.90
2019-03-13T00:39:04.803Z,79.80
2019-03-13T00:41:00.510Z,80.50
2019-03-13T00:42:55.280Z,80.10
2019-03-13T00:44:50.226Z,80.10
2019-03-13T00:46:44.811Z,79.90
2019-03-13T00:48:39.504Z,80.30
2019-03-13T00:50:34.123Z,80.50
2019-03-13T00:52:28.216Z,80.60
2019-03-13T00:54:22.260Z,81.20
2019-03-13T00:56:16.393Z,81.70
2019-03-13T00:58:10.361Z,81.80
2019-03-13T01:00:05.607Z,82.50
2019-03-13T01:02:14.644Z,82.10
2019-03-13T01:04:21.267Z,82.60
2019-03-13T01:06:27.239Z,83.10
2019-03-13T01:08:23.030Z,82.00
2019-03-13T01:10:18.132Z,81.80
2019-03-13T01:12:13.044Z,81.80
2019-03-13T01:14:07.226Z,82.20
2019-03-13T01:16:01.183Z,82.20
2019-03-13T01:17:55.455Z,82.40
2019-03-13T01:19:49.868Z,82.60
2019-03-13T01:21:46.110Z,83.40
2019-03-13T01:23:40.199Z,82.50
2019-03-13T01:25:34.918Z,79.90
2019-03-13T01:27:29.642Z,81.60
2019-03-13T01:29:23.718Z,79.70
2019-03-13T01:31:49.876Z,80.10
2019-03-13T01:33:43.984Z,78.90
2019-03-13T01:35:44.365Z,79.60
2019-03-13T01:37:39.043Z,80.60
2019-03-13T01:39:33.245Z,80.70
2019-03-13T01:41:32.217Z,81.60
2019-03-13T01:43:26.951Z,81.10
2019-03-13T01:45:21.450Z,81.60
2019-03-13T01:47:16.181Z,82.00
2019-03-13T01:49:11.338Z,81.60
2019-03-13T01:51:06.289Z,81.80
2019-03-13T01:53:01.023Z,82.50
2019-03-13T01:54:55.336Z,81.50
2019-03-13T01:56:50.397Z,81.40
2019-03-13T01:58:45.034Z,81.40
2019-03-13T02:00:39.259Z,81.50
2019-03-13T02:02:34.319Z,81.50
2019-03-13T02:04:28.294Z,81.10
2019-03-13T02:06:22.851Z,81.30
2019-03-13T02:08:17.759Z,81.20
2019-03-13T02:10:11.750Z,81.30
2019-03-13T02:12:05.746Z,81.50
2019-03-13T02:14:00.384Z,81.50
2019-03-13T02:15:55.135Z,81.20
2019-03-13T02:17:49.934Z,81.40
2019-03-13T02:19:44.741Z,81.50
2019-03-13T02:21:39.710Z,81.50
2019-03-13T02:23:34.092Z,81.80
2019-03-13T02:25:28.803Z,82.00
2019-03-13T02:27:23.226Z,82.10
2019-03-13T02:29:18.879Z,82.70
2019-03-13T02:31:14.080Z,83.00
2019-03-13T02:33:08.129Z,82.90
2019-03-13T02:35:02.319Z,84.00
2019-03-13T02:36:58.812Z,84.60
2019-03-13T02:38:54.295Z,84.60
2019-03-13T02:40:48.366Z,85.10
2019-03-13T02:42:43.172Z,85.40
2019-03-13T02:44:37.096Z,86.10
2019-03-13T02:46:31.462Z,87.20
2019-03-13T02:48:26.244Z,87.90
2019-03-13T02:50:21.102Z,88.60
2019-03-13T02:52:15.139Z,89.90
2019-03-13T02:54:09.779Z,90.00
2019-03-13T02:56:04.206Z,92.40
2019-03-13T02:57:58.550Z,92.20
2019-03-13T02:59:53.334Z,93.80
2019-03-13T03:01:59.476Z,95.80
2019-03-13T03:03:55.548Z,97.30
2019-03-13T03:05:50.066Z,95.80
2019-03-13T03:07:44.678Z,97.80
2019-03-13T03:09:39.046Z,99.10
2019-03-13T03:11:32.971Z,99.90
2019-03-13T03:13:30.413Z,99.90
2019-03-13T03:15:25.066Z,99.90
2019-03-13T03:17:20.086Z,99.90
2019-03-13T03:19:14.306Z,99.90
2019-03-13T03:21:11.182Z,99.90
2019-03-13T03:23:05.972Z,99.90
2019-03-13T03:24:59.896Z,99.90
2019-03-13T03:26:53.959Z,99.90
2019-03-13T03:28:48.603Z,99.90
2019-03-13T03:30:42.996Z,99.90
2019-03-13T03:32:38.011Z,99.90
2019-03-13T03:34:32.333Z,99.90
2019-03-13T03:36:26.976Z,99.90
2019-03-13T03:38:21.677Z,99.90
2019-03-13T03:40:21.322Z,99.90
2019-03-13T03:42:12.611Z,99.90
2019-03-13T03:44:06.943Z,99.90
2019-03-13T03:46:02.230Z,99.90
2019-03-13T03:48:00.616Z,99.90
2019-03-13T03:49:55.960Z,99.90
2019-03-13T03:51:50.617Z,99.90
2019-03-13T03:53:45.611Z,99.90
2019-03-13T03:55:39.744Z,99.90
2019-03-13T03:57:34.488Z,99.90
2019-03-13T03:59:29.565Z,99.90
2019-03-13T04:01:24.320Z,99.90
2019-03-13T04:03:19.109Z,99.90
2019-03-13T04:05:14.259Z,99.90
2019-03-13T04:07:08.461Z,99.90
2019-03-13T04:09:04.671Z,99.90
2019-03-13T04:10:59.460Z,99.90
2019-03-13T04:12:53.891Z,99.90
2019-03-13T04:14:48.485Z,99.90
2019-03-13T04:16:43.167Z,99.90
2019-03-13T04:18:38.159Z,99.90
2019-03-13T04:20:33.132Z,99.90
2019-03-13T04:22:28.124Z,99.90
2019-03-13T04:24:22.897Z,99.90
2019-03-13T04:26:17.589Z,99.90
2019-03-13T04:28:11.726Z,99.90
2019-03-13T04:30:06.749Z,99.90
2019-03-13T04:32:01.422Z,99.90
2019-03-13T04:33:55.566Z,99.90
2019-03-13T04:35:50.402Z,99.90
2019-03-13T04:37:45.428Z,99.90
2019-03-13T04:39:39.969Z,99.90
2019-03-13T04:41:34.754Z,99.90
2019-03-13T04:43:28.871Z,99.90
2019-03-13T04:45:23.094Z,99.90
2019-03-13T04:47:17.878Z,99.90
2019-03-13T04:49:12.533Z,99.90
2019-03-13T04:51:07.481Z,99.90
2019-03-13T04:53:02.381Z,99.90
2019-03-13T04:54:56.747Z,99.90
2019-03-13T04:56:51.598Z,99.90
2019-03-13T04:58:46.039Z,99.90
2019-03-13T05:00:40.640Z,99.90
2019-03-13T05:02:34.846Z,99.90
2019-03-13T05:04:29.346Z,99.90
2019-03-13T05:06:24.121Z,99.90
2019-03-13T05:08:28.558Z,99.90
2019-03-13T05:10:23.172Z,99.90
2019-03-13T05:12:18.071Z,99.90
2019-03-13T05:14:12.272Z,99.90
2019-03-13T05:16:07.209Z,99.90
2019-03-13T05:18:01.909Z,99.90
2019-03-13T05:19:56.661Z,99.90
2019-03-13T05:21:51.519Z,99.90
2019-03-13T05:23:46.269Z,99.90
2019-03-13T05:25:41.241Z,99.90
2019-03-13T05:27:35.966Z,99.90
2019-03-13T05:29:30.683Z,99.90
2019-03-13T05:31:25.234Z,99.90
2019-03-13T05:33:20.034Z,99.90
2019-03-13T05:35:15.107Z,99.90
2019-03-13T05:37:10.000Z,99.90
2019-03-13T05:39:07.142Z,99.90
2019-03-13T05:41:02.143Z,99.90
2019-03-13T05:42:56.762Z,99.90
2019-03-13T05:44:51.207Z,99.90
2019-03-13T05:46:46.010Z,99.90
2019-03-13T05:48:40.699Z,99.90
2019-03-13T05:50:35.347Z,99.90
2019-03-13T05:52:30.066Z,99.90
2019-03-13T05:54:24.289Z,99.90
2019-03-13T05:56:18.236Z,99.90
2019-03-13T05:58:12.101Z,99.90
2019-03-13T06:00:07.141Z,99.90
2019-03-13T06:02:01.885Z,99.90
2019-03-13T06:03:55.911Z,99.90
2019-03-13T06:05:50.715Z,99.90
2019-03-13T06:07:45.095Z,99.90
2019-03-13T06:09:39.820Z,99.90
2019-03-13T06:11:34.031Z,99.90
2019-03-13T06:13:28.721Z,99.90
2019-03-13T06:15:23.576Z,99.90
2019-03-13T06:17:18.528Z,99.90
2019-03-13T06:19:14.116Z,99.90
2019-03-13T06:21:14.263Z,99.90
2019-03-13T06:23:08.707Z,99.90
2019-03-13T06:25:03.487Z,99.90
2019-03-13T06:26:57.718Z,99.90
2019-03-13T06:28:52.339Z,99.90
2019-03-13T06:30:47.327Z,99.90
2019-03-13T06:32:41.532Z,99.90
2019-03-13T06:34:36.039Z,99.90
2019-03-13T06:36:30.626Z,99.90
2019-03-13T06:38:25.433Z,99.90
2019-03-13T06:40:20.231Z,99.90
2019-03-13T06:42:15.029Z,99.90
2019-03-13T06:44:09.071Z,99.90
2019-03-13T06:46:03.808Z,99.90
2019-03-13T06:47:58.459Z,99.90
2019-03-13T06:49:52.295Z,99.90
2019-03-13T06:51:46.853Z,99.90
2019-03-13T06:53:41.598Z,99.90
2019-03-13T06:55:36.209Z,99.90
2019-03-13T06:57:30.919Z,99.90
2019-03-13T06:59:29.794Z,99.90
2019-03-13T07:01:42.494Z,99.90
2019-03-13T07:03:42.512Z,99.90
2019-03-13T07:05:53.686Z,99.90
2019-03-13T07:08:06.624Z,99.90
2019-03-13T07:10:07.514Z,99.90
2019-03-13T07:12:30.406Z,99.90
2019-03-13T07:14:43.033Z,99.90
2019-03-13T07:16:59.722Z,99.90
2019-03-13T07:19:00.758Z,99.90
2019-03-13T07:21:06.115Z,99.90
2019-03-13T07:23:28.018Z,99.90
2019-03-13T07:25:37.971Z,99.90
2019-03-13T07:27:51.341Z,99.90
2019-03-13T07:30:14.363Z,99.90
2019-03-13T07:32:20.658Z,99.90
2019-03-13T07:34:43.498Z,99.90
2019-03-13T07:36:58.688Z,99.90
2019-03-13T07:39:11.543Z,99.90
2019-03-13T07:41:31.526Z,99.90
2019-03-13T07:43:53.618Z,99.90
2019-03-13T07:46:00.815Z,99.90
2019-03-13T07:48:16.323Z,99.90
2019-03-13T07:50:18.677Z,99.90
2019-03-13T07:52:32.975Z,99.90
2019-03-13T07:54:52.305Z,99.90
2019-03-13T07:56:56.719Z,99.90
2019-03-13T07:59:16.595Z,99.90
2019-03-13T08:01:29.228Z,99.90
2019-03-13T08:03:46.018Z,99.90
2019-03-13T08:06:17.439Z,99.90
2019-03-13T08:08:40.444Z,99.90
2019-03-13T08:10:46.940Z,99.90
2019-03-13T08:13:00.564Z,99.90
2019-03-13T08:15:12.490Z,99.90
2019-03-13T08:17:37.967Z,99.90
2019-03-13T08:19:49.789Z,99.90
2019-03-13T08:22:00.586Z,99.90
2019-03-13T08:24:13.636Z,99.90
2019-03-13T08:26:16.274Z,99.90
2019-03-13T08:28:24.682Z,99.90
2019-03-13T08:30:37.467Z,99.90
2019-03-13T08:32:49.377Z,99.90
2019-03-13T08:34:53.146Z,99.90
2019-03-13T08:36:58.006Z,99.90
2019-03-13T08:39:24.479Z,99.90
2019-03-13T08:41:37.950Z,99.90
2019-03-13T08:43:50.386Z,99.90
2019-03-13T08:45:58.068Z,99.90
2019-03-13T08:48:08.124Z,99.90
2019-03-13T08:50:12.877Z,99.90
2019-03-13T08:52:25.559Z,99.90
2019-03-13T08:54:38.745Z,99.90
2019-03-13T08:57:01.415Z,99.90
2019-03-13T08:59:10.174Z,99.90
2019-03-13T09:01:22.610Z,99.90
2019-03-13T09:03:39.536Z,99.90
2019-03-13T09:05:53.638Z,99.90
2019-03-13T09:08:09.987Z,99.90
2019-03-13T09:10:22.983Z,99.90
2019-03-13T09:12:37.171Z,99.90
2019-03-13T09:14:36.264Z,99.90
2019-03-13T09:16:42.960Z,99.90
2019-03-13T09:19:05.915Z,99.90
2019-03-13T09:21:05.053Z,99.90
2019-03-13T09:23:19.080Z,99.90
2019-03-13T09:25:32.316Z,99.90
2019-03-13T09:27:40.624Z,99.90
2019-03-13T09:29:41.028Z,99.90
2019-03-13T09:32:10.009Z,99.90
2019-03-13T09:34:13.134Z,99.90
2019-03-13T09:36:30.142Z,99.90
2019-03-13T09:38:30.442Z,99.90
2019-03-13T09:40:36.647Z,99.90
2019-03-13T09:42:53.640Z,99.90
2019-03-13T09:44:54.641Z,99.90
2019-03-13T09:47:01.146Z,99.90
2019-03-13T09:49:16.418Z,99.90
2019-03-13T09:51:35.712Z,99.90
2019-03-13T09:53:48.447Z,99.90
2019-03-13T09:56:05.600Z,99.90
2019-03-13T09:58:11.617Z,99.90
2019-03-13T10:00:24.032Z,99.90
2019-03-13T10:02:25.099Z,96.10
2019-03-13T10:04:35.622Z,93.60
2019-03-13T10:06:36.903Z,95.50
2019-03-13T10:08:48.138Z,93.50
2019-03-13T10:11:07.491Z,93.60
2019-03-13T10:13:24.926Z,91.70
2019-03-13T10:15:40.882Z,91.30
2019-03-13T10:17:54.722Z,90.50
2019-03-13T10:20:10.785Z,87.80
2019-03-13T10:22:24.806Z,87.10
2019-03-13T10:24:34.950Z,88.90
2019-03-13T10:27:07.180Z,88.40
2019-03-13T10:29:25.036Z,88.60
2019-03-13T10:31:41.136Z,88.60
2019-03-13T10:33:57.410Z,90.40
2019-03-13T10:36:07.789Z,90.20
2019-03-13T10:38:33.869Z,89.30
2019-03-13T10:40:52.939Z,89.30
2019-03-13T10:43:05.274Z,90.20
2019-03-13T10:45:09.159Z,90.20
2019-03-13T10:47:21.900Z,90.80
2019-03-13T10:49:29.548Z,91.10
2019-03-13T10:51:34.552Z,90.10
2019-03-13T10:53:53.963Z,88.80
2019-03-13T10:56:16.999Z,88.10
2019-03-13T10:58:18.835Z,90.00
2019-03-13T11:00:42.240Z,90.50
2019-03-13T11:02:56.391Z,89.80
2019-03-13T11:05:14.091Z,90.60
2019-03-13T11:07:28.727Z,89.10
2019-03-13T11:09:50.704Z,89.20
2019-03-13T11:11:54.814Z,88.80
2019-03-13T11:14:15.464Z,88.40
2019-03-13T11:16:19.739Z,88.30
2019-03-13T11:18:48.569Z,89.10
2019-03-13T11:21:03.991Z,89.50
2019-03-13T11:23:10.867Z,87.60
2019-03-13T11:25:28.385Z,87.70
2019-03-13T11:27:34.454Z,85.10
2019-03-13T11:29:41.683Z,84.20
2019-03-13T11:31:58.678Z,85.20
2019-03-13T11:34:00.191Z,85.00
2019-03-13T11:36:28.933Z,91.00
2019-03-13T11:38:43.758Z,98.30
2019-03-13T11:41:09.256Z,98.70
2019-03-13T11:43:28.359Z,99.90
2019-03-13T11:45:42.761Z,99.90
2019-03-13T11:47:56.388Z,99.90
2019-03-13T11:49:59.074Z,99.90
2019-03-13T11:52:16.088Z,99.90
2019-03-13T11:54:20.508Z,99.90
2019-03-13T11:56:37.604Z,99.90
2019-03-13T11:58:42.916Z,99.90
2019-03-13T12:00:59.644Z,99.90
2019-03-13T12:03:12.792Z,99.90
2019-03-13T12:05:34.331Z,99.90
2019-03-13T12:07:39.106Z,99.90
2019-03-13T12:09:42.039Z,99.90
2019-03-13T12:11:56.143Z,99.90
2019-03-13T12:14:03.660Z,99.90
2019-03-13T12:16:26.990Z,99.90
2019-03-13T12:18:32.534Z,99.90
2019-03-13T12:20:44.226Z,99.90
2019-03-13T12:23:04.396Z,99.90
2019-03-13T12:25:17.533Z,99.80
2019-03-13T12:27:22.182Z,97.60
2019-03-13T12:29:41.525Z,95.90
2019-03-13T12:31:48.341Z,96.30
2019-03-13T12:33:54.654Z,94.50
2019-03-13T12:36:07.398Z,95.40
2019-03-13T12:38:14.550Z,95.50
2019-03-13T12:40:22.447Z,96.10
2019-03-13T12:42:45.576Z,94.90
2019-03-13T12:44:48.987Z,94.10
2019-03-13T12:47:02.835Z,93.90
2019-03-13T12:49:12.588Z,94.30
2019-03-13T12:51:41.198Z,94.20
2019-03-13T12:54:04.005Z,95.00
2019-03-13T12:56:26.068Z,93.20
2019-03-13T12:58:45.331Z,92.40
2019-03-13T13:00:59.542Z,91.50
2019-03-13T13:03:16.210Z,93.40
2019-03-13T13:05:28.054Z,94.50
2019-03-13T13:07:41.514Z,94.50
2019-03-13T13:10:01.615Z,94.20
2019-03-13T13:12:28.016Z,95.30
2019-03-13T13:14:40.831Z,93.20
2019-03-13T13:17:10.133Z,93.00
2019-03-13T13:19:05.896Z,92.80
2019-03-13T13:21:00.938Z,92.70
2019-03-13T13:22:55.807Z,92.20
2019-03-13T13:24:50.545Z,92.10
2019-03-13T13:26:45.623Z,92.00
2019-03-13T13:28:39.733Z,92.70
2019-03-13T13:30:34.770Z,91.60
2019-03-13T13:32:28.658Z,92.20
2019-03-13T13:34:23.532Z,91.50
2019-03-13T13:36:18.617Z,92.00
2019-03-13T13:38:12.938Z,92.10
2019-03-13T13:40:08.326Z,92.80
2019-03-13T13:42:03.343Z,93.00
2019-03-13T13:43:58.050Z,93.40
2019-03-13T13:46:08.860Z,93.20
2019-03-13T13:48:03.560Z,93.30
2019-03-13T13:49:59.925Z,93.00
2019-03-13T13:51:54.703Z,91.10
2019-03-13T13:53:49.291Z,89.90
2019-03-13T13:55:43.430Z,88.30
2019-03-13T13:57:38.233Z,89.80
2019-03-13T13:59:32.438Z,89.70
2019-03-13T14:01:27.443Z,90.40
2019-03-13T14:03:22.455Z,90.90
2019-03-13T14:05:17.220Z,91.00
2019-03-13T14:07:11.900Z,90.50
2019-03-13T14:09:07.505Z,90.80
2019-03-13T14:11:03.326Z,91.00
2019-03-13T14:12:57.799Z,91.20
2019-03-13T14:14:52.394Z,92.20
2019-03-13T14:16:47.023Z,93.30
2019-03-13T14:18:41.097Z,93.80
2019-03-13T14:20:35.227Z,94.00
2019-03-13T14:22:30.278Z,94.80
2019-03-13T14:24:23.942Z,94.00
2019-03-13T14:26:18.835Z,94.00
2019-03-13T14:28:13.083Z,93.70
2019-03-13T14:30:08.089Z,93.20
2019-03-13T14:32:02.250Z,93.40
2019-03-13T14:33:57.570Z,93.20
2019-03-13T14:35:52.569Z,92.80
2019-03-13T14:37:46.582Z,92.80
2019-03-13T14:39:45.868Z,93.00
2019-03-13T14:41:40.239Z,92.90
2019-03-13T14:43:34.856Z,93.70
2019-03-13T14:45:29.365Z,93.70
2019-03-13T14:47:25.537Z,94.80
2019-03-13T14:49:20.241Z,95.70
2019-03-13T14:51:15.603Z,96.10
2019-03-13T14:53:10.601Z,96.60
2019-03-13T14:55:06.062Z,98.00
2019-03-13T14:57:00.901Z,97.70
2019-03-13T14:58:56.929Z,98.10
2019-03-13T15:00:51.718Z,99.00
2019-03-13T15:02:47.889Z,99.90
2019-03-13T15:04:43.065Z,99.90
2019-03-13T15:06:38.767Z,99.90
2019-03-13T15:08:33.650Z,99.90
2019-03-13T15:10:27.603Z,99.90
2019-03-13T15:12:22.440Z,99.90
2019-03-13T15:14:17.167Z,99.90
2019-03-13T15:16:11.293Z,99.90
2019-03-13T15:18:05.460Z,99.90
2019-03-13T15:20:00.456Z,99.90
2019-03-13T15:21:54.671Z,99.90
2019-03-13T15:23:49.306Z,99.90
2019-03-13T15:25:43.947Z,99.90
2019-03-13T15:27:39.062Z,99.90
2019-03-13T15:29:33.968Z,99.90
2019-03-13T15:31:27.971Z,99.90
2019-03-13T15:33:22.090Z,99.90
2019-03-13T15:35:16.878Z,99.90
2019-03-13T15:37:10.868Z,99.90
2019-03-13T15:39:06.973Z,99.90
2019-03-13T15:41:03.174Z,99.90
2019-03-13T15:42:58.058Z,99.90
2019-03-13T15:44:52.623Z,99.90
2019-03-13T15:46:47.431Z,99.90
2019-03-13T15:48:41.536Z,99.90
2019-03-13T15:50:36.199Z,99.90
2019-03-13T15:52:31.385Z,99.90
2019-03-13T15:54:26.399Z,99.90
2019-03-13T15:56:20.556Z,99.90
2019-03-13T15:58:16.186Z,99.90
2019-03-13T16:00:14.592Z,99.90
2019-03-13T16:02:09.204Z,99.90
2019-03-13T16:04:04.010Z,99.90
2019-03-13T16:05:58.693Z,99.90
2019-03-13T16:07:53.844Z,99.90
2019-03-13T16:09:48.423Z,99.90
2019-03-13T16:11:43.414Z,99.90
2019-03-13T16:13:38.135Z,99.90
2019-03-13T16:15:33.435Z,99.90
2019-03-13T16:17:28.140Z,99.90
2019-03-13T16:19:22.101Z,99.90
2019-03-13T16:21:16.864Z,99.90
2019-03-13T16:23:11.575Z,99.90
2019-03-13T16:25:06.604Z,99.90
2019-03-13T16:27:01.235Z,99.90
2019-03-13T16:28:55.905Z,99.90
2019-03-13T16:30:50.959Z,99.90
2019-03-13T16:32:45.955Z,99.90
2019-03-13T16:34:40.905Z,99.90
2019-03-13T16:36:36.813Z,99.90
2019-03-13T16:38:31.073Z,99.90
2019-03-13T16:40:25.819Z,99.90
2019-03-13T16:42:20.427Z,99.90
2019-03-13T16:44:15.365Z,99.90
2019-03-13T16:46:10.280Z,99.90
2019-03-13T16:48:05.474Z,99.90
2019-03-13T16:50:00.399Z,99.90
2019-03-13T16:51:55.352Z,99.90
2019-03-13T16:53:51.631Z,99.90
2019-03-13T16:55:45.735Z,99.90
2019-03-13T16:57:40.633Z,99.90
2019-03-13T16:59:35.137Z,99.90
2019-03-13T17:01:30.154Z,99.90
2019-03-13T17:03:25.161Z,99.90
2019-03-13T17:05:20.483Z,99.90
2019-03-13T17:07:15.202Z,99.90
2019-03-13T17:09:10.527Z,99.90
2019-03-13T17:11:06.776Z,99.90
2019-03-13T17:13:01.666Z,99.90
2019-03-13T17:14:56.520Z,99.90
2019-03-13T17:16:51.456Z,99.90
2019-03-13T17:18:45.486Z,99.90
2019-03-13T17:20:39.607Z,99.90
2019-03-13T17:22:34.664Z,99.90
2019-03-13T17:24:29.411Z,99.90
2019-03-13T17:26:24.194Z,99.90
2019-03-13T17:28:19.591Z,99.90
2019-03-13T17:30:20.093Z,99.90
2019-03-13T17:32:14.978Z,99.90
2019-03-13T17:34:09.888Z,99.90
2019-03-13T17:36:04.808Z,99.90
2019-03-13T17:37:59.540Z,99.90
2019-03-13T17:39:53.655Z,99.90
2019-03-13T17:41:50.331Z,99.90
2019-03-13T17:43:45.952Z,99.90
2019-03-13T17:45:40.615Z,99.90
2019-03-13T17:47:35.033Z,99.90
2019-03-13T17:49:29.560Z,99.90
2019-03-13T17:51:23.956Z,99.90
2019-03-13T17:53:18.753Z,99.90
2019-03-13T17:55:14.099Z,99.90
2019-03-13T17:57:08.984Z,99.90
2019-03-13T17:59:03.896Z,99.90
2019-03-13T18:00:58.039Z,99.90
2019-03-13T18:02:53.576Z,99.90
2019-03-13T18:04:48.425Z,99.90
2019-03-13T18:06:43.462Z,99.90
2019-03-13T18:08:37.619Z,99.90
2019-03-13T18:10:31.871Z,99.90
2019-03-13T18:12:26.202Z,99.90
2019-03-13T18:14:20.383Z,99.90
2019-03-13T18:16:15.174Z,99.90
2019-03-13T18:18:09.388Z,99.90
2019-03-13T18:20:04.840Z,99.90
2019-03-13T18:22:00.811Z,99.90
2019-03-13T18:23:55.503Z,99.90
2019-03-13T18:25:50.345Z,99.90
2019-03-13T18:27:45.069Z,99.90
2019-03-13T18:29:38.923Z,99.90
2019-03-13T18:31:33.460Z,99.90
2019-03-13T18:33:28.253Z,99.90
2019-03-13T18:35:22.276Z,99.90
2019-03-13T18:37:16.925Z,99.90
2019-03-13T18:39:11.814Z,99.90
2019-03-13T18:41:07.637Z,99.90
2019-03-13T18:43:01.909Z,99.90
2019-03-13T18:44:56.226Z,99.90
2019-03-13T18:46:50.914Z,99.90
2019-03-13T18:48:46.178Z,99.90
2019-03-13T18:50:40.460Z,99.90
2019-03-13T18:52:35.048Z,99.90
2019-03-13T18:54:29.372Z,99.90
2019-03-13T18:56:24.241Z,99.90
2019-03-13T18:58:19.053Z,99.90
2019-03-13T19:00:22.902Z,99.90
2019-03-13T19:02:17.091Z,99.90
2019-03-13T19:04:12.251Z,99.90
2019-03-13T19:06:07.356Z,99.90
2019-03-13T19:08:02.107Z,99.90
2019-03-13T19:09:56.823Z,99.90
2019-03-13T19:11:51.358Z,99.90
2019-03-13T19:13:46.235Z,99.90
2019-03-13T19:15:40.583Z,99.90
2019-03-13T19:17:36.023Z,99.90
2019-03-13T19:19:30.118Z,99.90
2019-03-13T19:21:24.203Z,99.90
2019-03-13T19:23:18.719Z,99.90
2019-03-13T19:25:14.006Z,99.90
2019-03-13T19:27:08.649Z,99.90
2019-03-13T19:29:03.411Z,99.90
2019-03-13T19:30:57.639Z,99.90
2019-03-13T19:32:52.147Z,99.90
2019-03-13T19:34:46.610Z,99.90
2019-03-13T19:36:41.733Z,99.90
2019-03-13T19:38:36.529Z,99.90
2019-03-13T19:40:31.142Z,99.90
2019-03-13T19:42:26.332Z,99.90
2019-03-13T19:44:20.576Z,99.90
2019-03-13T19:46:20.032Z,99.90
2019-03-13T19:48:14.787Z,99.90
2019-03-13T19:50:09.378Z,99.90
2019-03-13T19:52:03.932Z,99.90
2019-03-13T19:53:58.557Z,99.90
2019-03-13T19:55:53.366Z,99.90
2019-03-13T19:57:48.196Z,99.90
2019-03-13T19:59:43.250Z,99.90
2019-03-13T20:01:38.107Z,99.90
2019-03-13T20:03:32.405Z,99.90
2019-03-13T20:05:26.618Z,99.90
2019-03-13T20:07:21.371Z,99.90
2019-03-13T20:09:16.264Z,99.90
2019-03-13T20:11:10.599Z,99.90
2019-03-13T20:13:05.312Z,99.90
2019-03-13T20:15:00.715Z,99.90
2019-03-13T20:16:56.817Z,99.90
2019-03-13T20:18:51.650Z,99.90
2019-03-13T20:20:45.841Z,99.90
2019-03-13T20:22:40.667Z,99.90
2019-03-13T20:24:34.878Z,99.90
2019-03-13T20:26:28.959Z,99.90
2019-03-13T20:28:24.087Z,99.90
2019-03-13T20:30:19.403Z,99.90
2019-03-13T20:32:14.488Z,99.90
2019-03-13T20:34:09.444Z,99.90
2019-03-13T20:36:04.787Z,99.90
2019-03-13T20:37:58.860Z,99.90
2019-03-13T20:39:53.606Z,99.90
2019-03-13T20:41:48.607Z,99.90
2019-03-13T20:43:45.845Z,99.90
2019-03-13T20:45:39.939Z,99.90
2019-03-13T20:47:34.810Z,99.90
2019-03-13T20:49:28.621Z,99.90
2019-03-13T20:51:22.939Z,99.90
2019-03-13T20:53:17.368Z,99.90
2019-03-13T20:55:12.843Z,99.90
2019-03-13T20:57:07.733Z,99.90
2019-03-13T20:59:02.454Z,99.90
2019-03-13T21:00:56.339Z,99.90
2019-03-13T21:02:50.398Z,99.90
2019-03-13T21:04:45.156Z,99.90
2019-03-13T21:06:39.338Z,99.90
2019-03-13T21:08:34.335Z,99.90
2019-03-13T21:10:29.015Z,99.90
2019-03-13T21:12:23.684Z,99.90
2019-03-13T21:14:17.855Z,99.90
2019-03-13T21:16:12.770Z,99.90
2019-03-13T21:18:07.380Z,99.90
2019-03-13T21:20:02.090Z,99.90
2019-03-13T21:21:57.305Z,99.90
2019-03-13T21:23:51.816Z,99.90
2019-03-13T21:25:56.818Z,99.90
2019-03-13T21:27:51.035Z,99.90
2019-03-13T21:29:45.062Z,99.90
2019-03-13T21:31:39.908Z,99.90
2019-03-13T21:33:34.212Z,99.90
2019-03-13T21:35:30.335Z,99.90
2019-03-13T21:37:24.769Z,99.90
2019-03-13T21:39:19.489Z,99.90
2019-03-13T21:41:13.543Z,99.90
2019-03-13T21:43:08.510Z,99.90
2019-03-13T21:45:03.344Z,99.90
2019-03-13T21:46:58.338Z,99.90
2019-03-13T21:48:52.124Z,99.90
2019-03-13T21:50:50.143Z,99.90
2019-03-13T21:52:42.487Z,99.90
2019-03-13T21:54:37.189Z,99.90
2019-03-13T21:56:31.265Z,99.90
2019-03-13T21:58:26.008Z,99.90
2019-03-13T22:00:23.341Z,99.90
2019-03-13T22:02:18.131Z,99.90
2019-03-13T22:04:23.587Z,99.90
2019-03-13T22:06:08.784Z,99.90
2019-03-13T22:08:02.661Z,99.90
2019-03-13T22:09:58.674Z,99.90
2019-03-13T22:11:53.183Z,99.90
2019-03-13T22:13:48.255Z,99.90
2019-03-13T22:15:43.283Z,99.90
2019-03-13T22:17:39.525Z,99.90
2019-03-13T22:19:33.514Z,99.90
2019-03-13T22:21:27.761Z,99.90
2019-03-13T22:23:22.626Z,99.90
2019-03-13T22:25:17.853Z,99.90
2019-03-13T22:27:14.747Z,99.90
2019-03-13T22:29:07.851Z,99.90
2019-03-13T22:31:02.933Z,99.90
2019-03-13T22:32:57.184Z,99.90
2019-03-13T22:34:51.355Z,99.90
2019-03-13T22:36:46.370Z,99.90
2019-03-13T22:38:41.361Z,99.90
2019-03-13T22:40:36.147Z,99.90
2019-03-13T22:42:30.982Z,99.90
2019-03-13T22:44:25.838Z,99.90
2019-03-13T22:46:20.534Z,99.90
2019-03-13T22:48:14.563Z,99.90
2019-03-13T22:50:11.275Z,99.90
2019-03-13T22:52:05.152Z,99.90
2019-03-13T22:53:59.791Z,99.90
2019-03-13T22:55:54.957Z,99.90
2019-03-13T22:57:50.211Z,99.90
2019-03-13T22:59:44.126Z,99.90
2019-03-13T23:01:42.914Z,99.90
2019-03-13T23:03:40.511Z,99.90
2019-03-13T23:05:36.087Z,99.90
2019-03-13T23:07:32.401Z,99.90
2019-03-13T23:09:26.380Z,99.90
2019-03-13T23:11:21.231Z,99.90
2019-03-13T23:13:17.457Z,99.90
2019-03-13T23:15:11.430Z,99.90
2019-03-13T23:17:05.737Z,99.90
2019-03-13T23:18:59.796Z,99.90
2019-03-13T23:20:54.575Z,99.90
2019-03-13T23:22:49.063Z,99.90
2019-03-13T23:24:43.615Z,99.90
2019-03-13T23:26:37.719Z,99.90
2019-03-13T23:28:31.654Z,99.90
2019-03-13T23:30:26.347Z,99.90
2019-03-13T23:32:21.191Z,99.90
2019-03-13T23:34:15.356Z,99.90
2019-03-13T23:36:09.840Z,99.90
2019-03-13T23:38:05.144Z,99.90
2019-03-13T23:40:00.304Z,99.90
2019-03-13T23:41:55.030Z,99.90
2019-03-13T23:43:49.867Z,99.90
2019-03-13T23:45:44.528Z,99.90
2019-03-13T23:47:39.197Z,99.90
2019-03-13T23:49:34.427Z,99.90
2019-03-13T23:51:28.778Z,99.90
2019-03-13T23:53:23.323Z,99.90
2019-03-13T23:55:18.194Z,99.90
2019-03-13T23:57:13.089Z,99.90
2019-03-13T23:59:07.542Z,99.90
